NCAR-RAP Real-Time Weather Data

Output produced by METARs form (26 May 2022  07:49 UTC)
found at http://weather.rap.ucar.edu/surface/
 
VLVT 260730Z 24004KT 8000 SCT016 SCT200 35/23 Q1002 NOSIG
VLVT 260700Z 27004KT 8000 SCT016 SCT200 34/24 Q1003 NOSIG
VLVT 260630Z 27006KT 8000 SCT016 SCT200 34/23 Q1004 NOSIG
VLVT 260600Z 27004KT 8000 SCT016 SCT200 35/24 Q1004 NOSIG
VLVT 260530Z 30004KT 8000 FEW020 BKN200 33/25 Q1004 NOSIG
VLVT 260500Z 22002KT 8000 FEW020 BKN200 33/24 Q1005 NOSIG
VLVT 260430Z 18006KT 8000 FEW020 BKN200 32/25 Q1005 NOSIG
VLVT 260400Z 22004KT 8000 FEW020 BKN200 33/24 Q1006 NOSIG
VLVT 260330Z 18004KT 8000 FEW020 BKN200 32/25 Q1006 NOSIG
VLVT 260300Z 22006KT 8000 FEW020 BKN200 31/24 Q1006 NOSIG
VLVT 260230Z 20002KT 8000 FEW020 BKN200 31/24 Q1006 NOSIG
VLVT 260200Z 22004KT 8000 SCT200 31/24 Q1006 NOSIG
VLVT 260130Z 34002KT 8000 SCT200 31/24 Q1006 NOSIG
VLVT 260100Z 34002KT 8000 SCT200 30/24 Q1005 NOSIG
VLVT 260030Z 36002KT 7000 SCT200 29/25 Q1005 NOSIG
VLVT 260000Z 30002KT 6000 SCT200 27/26 Q1005 NOSIG
VLVT 252330Z 00000KT 6000 SCT200 26/26 Q1005 NOSIG
VLVT 252300Z 22002KT 6000 SCT200 25/26 Q1004 NOSIG